createdAt,value
2023-02-18T00:00:29.220Z,102570.56
2023-02-18T00:02:57.148Z,102563.53
2023-02-18T00:05:24.915Z,102569.09
2023-02-18T00:07:54.048Z,102560.75
2023-02-18T00:10:22.059Z,102562.50
2023-02-18T00:12:49.760Z,102563.47
2023-02-18T00:15:17.596Z,102561.63
2023-02-18T00:17:45.295Z,102563.72
2023-02-18T00:20:13.856Z,102551.63
2023-02-18T00:22:41.618Z,102557.16
2023-02-18T00:25:10.834Z,102561.03
2023-02-18T00:27:38.662Z,102556.97
2023-02-18T00:30:07.759Z,102558.91
2023-02-18T00:32:36.090Z,102559.94
2023-02-18T00:35:04.024Z,102553.50
2023-02-18T00:37:33.377Z,102553.94
2023-02-18T00:40:02.812Z,102558.16
2023-02-18T00:42:31.921Z,102545.63
2023-02-18T00:44:59.737Z,102545.81
2023-02-18T00:47:27.563Z,102550.59
2023-02-18T00:49:55.259Z,102545.00
2023-02-18T00:52:23.007Z,102546.63
2023-02-18T00:54:51.830Z,102543.75
2023-02-18T00:57:19.555Z,102544.13
2023-02-18T00:59:48.754Z,102544.88
2023-02-18T01:02:16.539Z,102546.22
2023-02-18T01:04:44.305Z,102548.56
2023-02-18T01:07:12.245Z,102541.56
2023-02-18T01:09:40.102Z,102539.00
2023-02-18T01:12:08.181Z,102544.06
2023-02-18T01:14:36.028Z,102541.97
2023-02-18T01:17:05.179Z,102541.06
2023-02-18T01:19:33.095Z,102539.59
2023-02-18T01:22:00.798Z,102535.50
2023-02-18T01:24:28.664Z,102536.72
2023-02-18T01:26:56.418Z,102538.13
2023-02-18T01:29:24.307Z,102526.03
2023-02-18T01:31:52.225Z,102537.25
2023-02-18T01:34:21.455Z,102537.63
2023-02-18T01:36:49.199Z,102539.34
2023-02-18T01:39:16.983Z,102540.44
2023-02-18T01:41:44.722Z,102538.81
2023-02-18T01:44:14.540Z,102538.00
2023-02-18T01:46:42.360Z,102545.94
2023-02-18T01:49:11.823Z,102546.63
2023-02-18T01:51:44.693Z,102543.56
2023-02-18T01:54:16.020Z,102540.16
2023-02-18T01:56:48.556Z,102530.94
2023-02-18T01:59:22.556Z,102531.06
2023-02-18T02:01:50.669Z,102529.03
2023-02-18T02:04:19.033Z,102525.31
2023-02-18T02:06:48.159Z,102522.22
2023-02-18T02:09:18.602Z,102527.91
2023-02-18T02:12:05.214Z,102523.94
2023-02-18T02:14:56.286Z,102524.44
2023-02-18T02:17:34.525Z,102516.88
2023-02-18T02:20:44.039Z,102517.59
2023-02-18T02:23:42.639Z,102516.88
2023-02-18T02:26:36.265Z,102515.09
2023-02-18T02:29:26.812Z,102518.22
2023-02-18T02:32:08.429Z,102522.78
2023-02-18T02:34:46.626Z,102520.72
2023-02-18T02:37:25.326Z,102512.22
2023-02-18T02:40:02.675Z,102511.78
2023-02-18T02:42:41.221Z,102510.78
2023-02-18T02:45:16.990Z,102503.75
2023-02-18T02:47:50.955Z,102507.25
2023-02-18T02:50:27.587Z,102492.59
2023-02-18T02:53:00.432Z,102495.19
2023-02-18T02:55:28.257Z,102496.59
2023-02-18T02:57:57.206Z,102496.75
2023-02-18T03:00:38.387Z,102484.38
2023-02-18T03:03:36.056Z,102490.34
2023-02-18T03:06:22.436Z,102484.34
2023-02-18T03:08:58.691Z,102475.28
2023-02-18T03:11:31.104Z,102481.97
2023-02-18T03:14:07.935Z,102481.09
2023-02-18T03:16:40.864Z,102485.00
2023-02-18T03:19:14.821Z,102473.66
2023-02-18T03:21:48.983Z,102476.28
2023-02-18T03:24:21.684Z,102471.81
2023-02-18T03:26:54.795Z,102473.66
2023-02-18T03:29:23.892Z,102469.13
2023-02-18T03:31:55.764Z,102473.72
2023-02-18T03:34:27.978Z,102471.25
2023-02-18T03:36:59.025Z,102472.28
2023-02-18T03:39:29.725Z,102465.63
2023-02-18T03:41:57.941Z,102468.38
2023-02-18T03:44:26.716Z,102465.88
2023-02-18T03:46:54.974Z,102463.34
2023-02-18T03:49:22.804Z,102461.25
2023-02-18T03:51:50.590Z,102459.63
2023-02-18T03:54:20.321Z,102449.25
2023-02-18T03:56:48.036Z,102453.88
2023-02-18T03:59:15.899Z,102449.13
2023-02-18T04:01:43.626Z,102455.56
2023-02-18T04:04:11.436Z,102449.34
2023-02-18T04:06:39.261Z,102459.19
2023-02-18T04:09:09.171Z,102457.16
2023-02-18T04:11:39.488Z,102458.63
2023-02-18T04:14:08.091Z,102457.66
2023-02-18T04:16:35.991Z,102459.78
2023-02-18T04:19:03.811Z,102455.50
2023-02-18T04:21:31.507Z,102457.50
2023-02-18T04:23:59.288Z,102456.25
2023-02-18T04:26:27.110Z,102459.09
2023-02-18T04:28:56.179Z,102451.75
2023-02-18T04:31:24.089Z,102466.88
2023-02-18T04:33:52.448Z,102458.47
2023-02-18T04:36:20.234Z,102464.09
2023-02-18T04:38:47.989Z,102451.91
2023-02-18T04:41:15.800Z,102462.44
2023-02-18T04:43:43.634Z,102460.66
2023-02-18T04:46:12.869Z,102455.97
2023-02-18T04:48:40.821Z,102455.66
2023-02-18T04:51:08.727Z,102450.94
2023-02-18T04:53:36.786Z,102453.56
2023-02-18T04:56:05.063Z,102453.84
2023-02-18T04:58:32.859Z,102455.25
2023-02-18T05:01:01.585Z,102455.31
2023-02-18T05:03:33.832Z,102459.84
2023-02-18T05:06:01.649Z,102457.63
2023-02-18T05:08:29.377Z,102457.75
2023-02-18T05:10:57.395Z,102462.59
2023-02-18T05:13:25.175Z,102456.56
2023-02-18T05:15:54.812Z,102464.63
2023-02-18T05:18:22.579Z,102462.59
2023-02-18T05:20:51.716Z,102464.34
2023-02-18T05:23:20.245Z,102465.34
2023-02-18T05:25:48.322Z,102466.88
2023-02-18T05:28:16.044Z,102464.28
2023-02-18T05:30:43.895Z,102461.28
2023-02-18T05:33:11.938Z,102457.13
2023-02-18T05:35:39.762Z,102454.84
2023-02-18T05:38:09.888Z,102461.16
2023-02-18T05:40:37.631Z,102449.53
2023-02-18T05:43:05.721Z,102458.16
2023-02-18T05:45:33.471Z,102466.00
2023-02-18T05:48:01.326Z,102459.50
2023-02-18T05:50:29.301Z,102462.16
2023-02-18T05:52:57.151Z,102468.19
2023-02-18T05:55:26.303Z,102459.31
2023-02-18T05:57:54.386Z,102460.09
2023-02-18T06:00:22.505Z,102463.84
2023-02-18T06:02:50.430Z,102452.19
2023-02-18T06:05:18.177Z,102458.84
2023-02-18T06:07:45.933Z,102459.63
2023-02-18T06:10:13.831Z,102460.94
2023-02-18T06:12:43.001Z,102457.13
2023-02-18T06:15:10.992Z,102465.00
2023-02-18T06:17:38.810Z,102455.69
2023-02-18T06:20:07.939Z,102456.47
2023-02-18T06:22:35.639Z,102457.75
2023-02-18T06:25:03.434Z,102458.91
2023-02-18T06:27:31.173Z,102457.81
2023-02-18T06:30:00.410Z,102464.94
2023-02-18T06:32:28.255Z,102461.13
2023-02-18T06:34:56.011Z,102456.44
2023-02-18T06:37:23.716Z,102456.00
2023-02-18T06:39:51.502Z,102457.03
2023-02-18T06:42:19.194Z,102458.97
2023-02-18T06:44:46.944Z,102461.13
2023-02-18T06:47:16.075Z,102451.16
2023-02-18T06:49:43.849Z,102449.13
2023-02-18T06:52:11.603Z,102451.28
2023-02-18T06:54:39.430Z,102451.06
2023-02-18T06:57:07.795Z,102446.75
2023-02-18T06:59:35.672Z,102446.97
2023-02-18T07:02:03.427Z,102449.41
2023-02-18T07:04:32.592Z,102448.13
2023-02-18T07:07:00.359Z,102439.59
2023-02-18T07:09:28.124Z,102443.78
2023-02-18T07:11:55.938Z,102445.16
2023-02-18T07:14:24.277Z,102450.31
2023-02-18T07:16:52.113Z,102451.06
2023-02-18T07:19:19.856Z,102450.91
2023-02-18T07:21:48.994Z,102453.59
2023-02-18T07:24:16.808Z,102458.03
2023-02-18T07:26:44.551Z,102465.09
2023-02-18T07:29:12.398Z,102465.34
2023-02-18T07:31:40.291Z,102468.47
2023-02-18T07:34:08.041Z,102472.31
2023-02-18T07:36:35.819Z,102473.47
2023-02-18T07:39:05.053Z,102473.84
2023-02-18T07:41:32.921Z,102472.84
2023-02-18T07:44:00.763Z,102480.91
2023-02-18T07:46:28.523Z,102485.88
2023-02-18T07:48:57.501Z,102492.72
2023-02-18T07:51:25.604Z,102493.69
2023-02-18T07:53:53.427Z,102501.91
2023-02-18T07:56:22.887Z,102501.16
2023-02-18T07:58:50.637Z,102495.69
2023-02-18T08:01:18.564Z,102501.25
2023-02-18T08:03:46.352Z,102509.47
2023-02-18T08:06:22.727Z,102506.97
2023-02-18T08:08:50.527Z,102505.13
2023-02-18T08:11:19.784Z,102510.94
2023-02-18T08:13:49.234Z,102511.28
2023-02-18T08:16:17.383Z,102516.09
2023-02-18T08:18:45.274Z,102512.13
2023-02-18T08:21:13.026Z,102511.00
2023-02-18T08:23:40.874Z,102520.63
2023-02-18T08:26:09.587Z,102519.84
2023-02-18T08:28:37.990Z,102519.78
2023-02-18T08:31:07.546Z,102524.22
2023-02-18T08:33:35.427Z,102516.94
2023-02-18T08:36:08.361Z,102515.16
2023-02-18T08:38:36.255Z,102519.00
2023-02-18T08:41:05.666Z,102520.00
2023-02-18T08:43:33.586Z,102521.84
2023-02-18T08:46:01.884Z,102528.53
2023-02-18T08:48:31.770Z,102518.63
2023-02-18T08:51:00.969Z,102518.53
2023-02-18T08:53:29.406Z,102523.56
2023-02-18T08:55:57.730Z,102529.44
2023-02-18T08:58:26.120Z,102529.44
2023-02-18T09:00:54.003Z,102530.06
2023-02-18T09:03:21.713Z,102525.38
2023-02-18T09:05:52.322Z,102520.97
2023-02-18T09:08:20.461Z,102529.06
2023-02-18T09:10:48.846Z,102525.72
2023-02-18T09:13:17.134Z,102523.44
2023-02-18T09:15:45.837Z,102527.97
2023-02-18T09:18:14.035Z,102538.13
2023-02-18T09:20:41.903Z,102531.06
2023-02-18T09:23:11.071Z,102533.94
2023-02-18T09:25:41.427Z,102530.56
2023-02-18T09:28:09.651Z,102541.97
2023-02-18T09:30:37.852Z,102534.38
2023-02-18T09:33:05.724Z,102528.50
2023-02-18T09:35:33.455Z,102528.50
2023-02-18T09:38:01.470Z,102533.00
2023-02-18T09:40:35.939Z,102528.22
2023-02-18T09:43:04.351Z,102526.97
2023-02-18T09:45:32.084Z,102525.84
2023-02-18T09:48:00.671Z,102528.09
2023-02-18T09:50:31.348Z,102530.47
2023-02-18T09:53:00.382Z,102527.91
2023-02-18T09:55:32.714Z,102525.56
2023-02-18T09:58:03.705Z,102536.56
2023-02-18T10:00:36.362Z,102531.16
2023-02-18T10:03:08.377Z,102533.75
2023-02-18T10:05:38.184Z,102535.53
2023-02-18T10:08:08.508Z,102536.16
2023-02-18T10:10:43.104Z,102535.78
2023-02-18T10:13:16.056Z,102538.34
2023-02-18T10:15:44.585Z,102529.53
2023-02-18T10:18:26.380Z,102532.50
2023-02-18T10:20:58.427Z,102542.13
2023-02-18T10:23:26.745Z,102540.41
2023-02-18T10:25:57.751Z,102542.00
2023-02-18T10:28:27.548Z,102545.81
2023-02-18T10:31:00.664Z,102548.91
2023-02-18T10:33:34.691Z,102547.06
2023-02-18T10:36:14.871Z,102547.34
2023-02-18T10:38:54.853Z,102547.25
2023-02-18T10:41:32.716Z,102536.00
2023-02-18T10:44:08.574Z,102545.03
2023-02-18T10:46:44.549Z,102539.38
2023-02-18T10:49:31.859Z,102537.66
2023-02-18T10:52:03.511Z,102539.75
2023-02-18T10:54:51.173Z,102535.22
2023-02-18T10:57:21.855Z,102534.91
2023-02-18T10:59:58.363Z,102530.69
2023-02-18T11:02:30.763Z,102525.25
2023-02-18T11:05:01.876Z,102527.69
2023-02-18T11:07:34.562Z,102530.72
2023-02-18T11:10:11.184Z,102522.50
2023-02-18T11:12:47.439Z,102521.41
2023-02-18T11:15:20.959Z,102521.28
2023-02-18T11:17:50.483Z,102518.34
2023-02-18T11:20:30.148Z,102512.09
2023-02-18T11:23:18.387Z,102514.72
2023-02-18T11:25:59.738Z,102523.91
2023-02-18T11:28:40.559Z,102526.22
2023-02-18T11:31:10.664Z,102531.69
2023-02-18T11:33:41.747Z,102515.06
2023-02-18T11:36:19.530Z,102526.31
2023-02-18T11:38:51.090Z,102521.06
2023-02-18T11:41:21.935Z,102517.84
2023-02-18T11:43:54.211Z,102522.38
2023-02-18T11:46:24.512Z,102520.84
2023-02-18T11:48:53.170Z,102522.41
2023-02-18T11:51:24.394Z,102522.09
2023-02-18T11:53:59.776Z,102515.09
2023-02-18T11:56:30.751Z,102515.91
2023-02-18T11:59:00.578Z,102518.09
2023-02-18T12:01:41.132Z,102515.75
2023-02-18T12:04:14.687Z,102518.88
2023-02-18T12:06:50.805Z,102505.97
2023-02-18T12:09:28.200Z,102515.09
2023-02-18T12:12:00.277Z,102505.06
2023-02-18T12:14:29.564Z,102501.34
2023-02-18T12:17:21.325Z,102502.97
2023-02-18T12:20:26.258Z,102499.25
2023-02-18T12:23:04.069Z,102496.13
2023-02-18T12:25:41.696Z,102491.09
2023-02-18T12:28:23.493Z,102493.00
2023-02-18T12:31:11.176Z,102487.03
2023-02-18T12:33:53.052Z,102492.28
2023-02-18T12:36:32.235Z,102481.47
2023-02-18T12:39:11.722Z,102479.25
2023-02-18T12:41:51.725Z,102472.28
2023-02-18T12:44:33.280Z,102471.38
2023-02-18T12:47:25.795Z,102463.50
2023-02-18T12:50:22.733Z,102456.81
2023-02-18T12:53:04.767Z,102464.69
2023-02-18T12:55:49.928Z,102448.06
2023-02-18T12:58:31.680Z,102452.22
2023-02-18T13:01:17.688Z,102446.31
2023-02-18T13:04:21.248Z,102441.63
2023-02-18T13:07:04.143Z,102433.66
2023-02-18T13:09:44.728Z,102427.41
2023-02-18T13:12:20.047Z,102426.06
2023-02-18T13:14:51.675Z,102431.34
2023-02-18T13:17:21.712Z,102434.63
2023-02-18T13:19:53.808Z,102425.72
2023-02-18T13:22:24.971Z,102431.44
2023-02-18T13:24:56.218Z,102419.31
2023-02-18T13:27:30.726Z,102423.09
2023-02-18T13:30:15.115Z,102410.31
2023-02-18T13:32:52.766Z,102421.53
2023-02-18T13:35:26.688Z,102419.66
2023-02-18T13:38:12.818Z,102411.66
2023-02-18T13:40:41.438Z,102408.38
2023-02-18T13:43:20.775Z,102412.75
2023-02-18T13:46:05.522Z,102402.53
2023-02-18T13:48:44.658Z,102402.88
2023-02-18T13:51:16.301Z,102400.81
2023-02-18T13:53:51.720Z,102393.16
2023-02-18T13:56:28.394Z,102390.28
2023-02-18T13:59:00.593Z,102389.31
2023-02-18T14:01:40.640Z,102386.25
2023-02-18T14:04:49.333Z,102384.09
2023-02-18T14:07:50.189Z,102371.88
2023-02-18T14:10:35.798Z,102373.94
2023-02-18T14:13:21.570Z,102369.72
2023-02-18T14:15:56.837Z,102376.06
2023-02-18T14:18:55.605Z,102366.53
2023-02-18T14:21:37.111Z,102369.06
2023-02-18T14:24:08.814Z,102366.66
2023-02-18T14:26:41.107Z,102367.19
2023-02-18T14:29:16.721Z,102366.81
2023-02-18T14:31:55.180Z,102362.88
2023-02-18T14:34:47.228Z,102365.75
2023-02-18T14:37:28.420Z,102353.38
2023-02-18T14:40:09.153Z,102358.72
2023-02-18T14:42:46.919Z,102353.63
2023-02-18T14:45:27.519Z,102354.03
2023-02-18T14:48:17.625Z,102352.97
2023-02-18T14:50:50.370Z,102346.91
2023-02-18T14:53:21.301Z,102351.66
2023-02-18T14:55:52.876Z,102349.50
2023-02-18T14:58:31.088Z,102342.94
2023-02-18T15:00:58.835Z,102340.69
2023-02-18T15:03:29.377Z,102340.06
2023-02-18T15:05:57.181Z,102341.56
2023-02-18T15:08:26.458Z,102345.78
2023-02-18T15:11:01.304Z,102335.22
2023-02-18T15:13:31.745Z,102340.13
2023-02-18T15:16:03.967Z,102329.44
2023-02-18T15:18:36.467Z,102333.09
2023-02-18T15:21:06.949Z,102331.69
2023-02-18T15:23:37.839Z,102330.75
2023-02-18T15:26:09.757Z,102331.69
2023-02-18T15:28:43.998Z,102334.06
2023-02-18T15:31:15.172Z,102326.72
2023-02-18T15:33:45.028Z,102333.34
2023-02-18T15:36:15.736Z,102330.00
2023-02-18T15:38:44.462Z,102325.28
2023-02-18T15:41:15.864Z,102317.78
2023-02-18T15:43:54.295Z,102313.16
2023-02-18T15:46:26.171Z,102315.97
2023-02-18T15:48:56.502Z,102309.19
2023-02-18T15:51:27.287Z,102307.34
2023-02-18T15:53:57.818Z,102311.81
2023-02-18T15:56:33.725Z,102309.06
2023-02-18T15:59:16.210Z,102306.28
2023-02-18T16:01:44.203Z,102304.59
2023-02-18T16:04:16.209Z,102303.69
2023-02-18T16:06:47.778Z,102304.09
2023-02-18T16:09:20.039Z,102302.91
2023-02-18T16:11:52.852Z,102306.41
2023-02-18T16:14:30.891Z,102303.50
2023-02-18T16:17:14.940Z,102298.00
2023-02-18T16:20:03.530Z,102300.09
2023-02-18T16:22:36.795Z,102304.88
2023-02-18T16:25:16.277Z,102296.88
2023-02-18T16:27:56.500Z,102302.75
2023-02-18T16:30:25.957Z,102304.03
2023-02-18T16:32:54.790Z,102313.81
2023-02-18T16:35:24.064Z,102306.50
2023-02-18T16:37:52.070Z,102307.31
2023-02-18T16:40:26.405Z,102307.56
2023-02-18T16:42:56.942Z,102304.78
2023-02-18T16:45:32.236Z,102310.22
2023-02-18T16:48:00.270Z,102302.94
2023-02-18T16:50:30.859Z,102303.75
2023-02-18T16:52:59.056Z,102301.47
2023-02-18T16:55:29.834Z,102304.88
2023-02-18T16:57:59.145Z,102303.91
2023-02-18T17:00:27.007Z,102303.91
2023-02-18T17:02:57.899Z,102299.16
2023-02-18T17:05:27.509Z,102297.81
2023-02-18T17:07:55.931Z,102302.03
2023-02-18T17:10:23.827Z,102302.94
2023-02-18T17:12:51.556Z,102312.47
2023-02-18T17:15:29.927Z,102306.69
2023-02-18T17:17:59.263Z,102307.47
2023-02-18T17:20:28.222Z,102309.19
2023-02-18T17:22:57.111Z,102305.81
2023-02-18T17:25:30.670Z,102304.78
2023-02-18T17:27:58.797Z,102299.03
2023-02-18T17:30:28.150Z,102294.75
2023-02-18T17:32:56.188Z,102303.34
2023-02-18T17:35:24.606Z,102305.34
2023-02-18T17:37:52.400Z,102310.88
2023-02-18T17:40:22.493Z,102314.94
2023-02-18T17:42:51.127Z,102314.25
2023-02-18T17:45:22.975Z,102315.38
2023-02-18T17:47:52.187Z,102321.69
2023-02-18T17:50:20.135Z,102315.13
2023-02-18T17:52:47.936Z,102313.91
2023-02-18T17:55:21.596Z,102320.09
2023-02-18T17:57:49.463Z,102319.63
2023-02-18T18:00:19.775Z,102324.09
2023-02-18T18:02:47.764Z,102321.81
2023-02-18T18:05:23.151Z,102326.38
2023-02-18T18:07:51.644Z,102331.69
2023-02-18T18:10:21.917Z,102326.19
2023-02-18T18:12:50.364Z,102327.81
2023-02-18T18:15:25.948Z,102333.94
2023-02-18T18:17:54.391Z,102337.53
2023-02-18T18:20:24.415Z,102336.56
2023-02-18T18:22:53.678Z,102339.41
2023-02-18T18:25:24.298Z,102344.63
2023-02-18T18:27:53.757Z,102351.78
2023-02-18T18:30:23.653Z,102357.31
2023-02-18T18:32:51.815Z,102354.66
2023-02-18T18:35:27.404Z,102354.72
2023-02-18T18:37:55.871Z,102358.31
2023-02-18T18:40:26.529Z,102361.13
2023-02-18T18:42:54.826Z,102357.47
2023-02-18T18:45:25.128Z,102368.19
2023-02-18T18:47:53.659Z,102361.75
2023-02-18T18:50:22.916Z,102355.41
2023-02-18T18:52:53.348Z,102360.00
2023-02-18T18:55:25.619Z,102357.47
2023-02-18T18:57:54.635Z,102355.59
2023-02-18T19:00:24.735Z,102354.94
2023-02-18T19:02:52.610Z,102356.91
2023-02-18T19:05:27.602Z,102352.63
2023-02-18T19:07:57.369Z,102357.56
2023-02-18T19:10:27.097Z,102350.13
2023-02-18T19:12:55.669Z,102356.19
2023-02-18T19:15:24.359Z,102353.81
2023-02-18T19:17:53.648Z,102357.56
2023-02-18T19:20:23.504Z,102353.59
2023-02-18T19:22:51.563Z,102351.91
2023-02-18T19:25:21.507Z,102347.84
2023-02-18T19:27:50.064Z,102355.47
2023-02-18T19:30:19.939Z,102357.75
2023-02-18T19:32:47.715Z,102348.78
2023-02-18T19:35:15.624Z,102341.34
2023-02-18T19:37:43.863Z,102351.00
2023-02-18T19:40:14.083Z,102350.94
2023-02-18T19:42:43.470Z,102350.56
2023-02-18T19:45:11.813Z,102347.69
2023-02-18T19:47:39.930Z,102347.19
2023-02-18T19:50:10.285Z,102351.25
2023-02-18T19:52:38.089Z,102356.13
2023-02-18T19:55:06.480Z,102354.84
2023-02-18T19:57:35.184Z,102357.34
2023-02-18T20:00:05.852Z,102356.13
2023-02-18T20:02:33.599Z,102360.28
2023-02-18T20:05:02.310Z,102355.06
2023-02-18T20:07:31.156Z,102351.34
2023-02-18T20:09:59.045Z,102353.47
2023-02-18T20:12:27.136Z,102355.09
2023-02-18T20:14:55.180Z,102346.31
2023-02-18T20:17:24.290Z,102352.91
2023-02-18T20:19:52.089Z,102354.97
2023-02-18T20:22:19.919Z,102354.84
2023-02-18T20:24:47.948Z,102358.84
2023-02-18T20:27:15.818Z,102365.03
2023-02-18T20:29:43.535Z,102360.72
2023-02-18T20:32:11.449Z,102352.50
2023-02-18T20:34:40.631Z,102357.22
2023-02-18T20:37:08.432Z,102368.94
2023-02-18T20:39:36.152Z,102360.13
2023-02-18T20:42:15.468Z,102354.59
2023-02-18T20:44:43.924Z,102354.59
2023-02-18T20:47:13.455Z,102341.69
2023-02-18T20:49:42.805Z,102347.34
2023-02-18T20:52:11.493Z,102349.03
2023-02-18T20:54:39.965Z,102356.25
2023-02-18T20:57:08.866Z,102353.63
2023-02-18T20:59:36.699Z,102355.06
2023-02-18T21:02:04.688Z,102355.94
2023-02-18T21:04:32.602Z,102351.25
2023-02-18T21:07:01.741Z,102357.63
2023-02-18T21:09:29.616Z,102355.50
2023-02-18T21:11:57.366Z,102365.56
2023-02-18T21:14:26.021Z,102365.34
2023-02-18T21:16:53.871Z,102371.63
2023-02-18T21:19:21.864Z,102364.91
2023-02-18T21:21:49.614Z,102369.81
2023-02-18T21:24:18.748Z,102364.66
2023-02-18T21:26:46.469Z,102378.38
2023-02-18T21:29:16.951Z,102379.66
2023-02-18T21:31:44.962Z,102373.50
2023-02-18T21:34:15.385Z,102376.41
2023-02-18T21:36:44.192Z,102377.84
2023-02-18T21:39:12.357Z,102377.91
2023-02-18T21:41:41.639Z,102381.97
2023-02-18T21:44:09.610Z,102390.84
2023-02-18T21:46:38.515Z,102382.22
2023-02-18T21:49:06.907Z,102377.22
2023-02-18T21:51:57.467Z,102379.22
2023-02-18T21:54:28.236Z,102377.03
2023-02-18T21:56:58.361Z,102372.84
2023-02-18T21:59:28.367Z,102370.56
2023-02-18T22:01:56.621Z,102371.44
2023-02-18T22:04:25.349Z,102374.78
2023-02-18T22:06:53.585Z,102374.41
2023-02-18T22:09:21.469Z,102379.44
2023-02-18T22:11:49.219Z,102378.28
2023-02-18T22:14:19.339Z,102386.03
2023-02-18T22:16:47.133Z,102377.91
2023-02-18T22:19:15.879Z,102373.88
2023-02-18T22:21:44.092Z,102369.13
2023-02-18T22:24:14.378Z,102362.06
2023-02-18T22:26:43.840Z,102367.41
2023-02-18T22:29:12.890Z,102362.38
2023-02-18T22:31:42.581Z,102368.91
2023-02-18T22:34:11.434Z,102368.34
2023-02-18T22:36:39.446Z,102351.25
2023-02-18T22:39:08.431Z,102369.97
2023-02-18T22:41:36.355Z,102372.94
2023-02-18T22:44:06.204Z,102365.91
2023-02-18T22:46:35.672Z,102362.78
2023-02-18T22:49:06.607Z,102367.13
2023-02-18T22:51:37.693Z,102364.56
2023-02-18T22:54:06.973Z,102365.59
2023-02-18T22:56:34.970Z,102371.22
2023-02-18T22:59:02.802Z,102379.91
2023-02-18T23:01:33.463Z,102385.75
2023-02-18T23:04:07.854Z,102391.38
2023-02-18T23:06:36.714Z,102382.44
2023-02-18T23:09:04.736Z,102387.06
2023-02-18T23:11:32.561Z,102389.41
2023-02-18T23:14:17.875Z,102397.03
2023-02-18T23:17:03.826Z,102388.28
2023-02-18T23:19:33.943Z,102393.19
2023-02-18T23:22:01.873Z,102400.13
2023-02-18T23:24:29.666Z,102410.94
2023-02-18T23:26:57.419Z,102417.72
2023-02-18T23:29:25.194Z,102413.19
2023-02-18T23:31:52.953Z,102400.13
2023-02-18T23:34:20.835Z,102413.19
2023-02-18T23:36:49.960Z,102412.69
2023-02-18T23:39:20.339Z,102413.34
2023-02-18T23:41:48.623Z,102417.13
2023-02-18T23:44:17.831Z,102422.16
2023-02-18T23:46:45.789Z,102420.13
2023-02-18T23:49:16.192Z,102407.25
2023-02-18T23:51:44.443Z,102408.66
2023-02-18T23:54:13.608Z,102413.28
2023-02-18T23:56:41.592Z,102413.16
2023-02-18T23:59:09.365Z,102411.84
